Terminal Aerodrome Forecast
Issued by NWS Wichita, KS

Home | Current Version | Previous Version | Graphics & Text | Print | Product List | Glossary On
Versions: 1 2 3 4 5 6 7 8 9 10 11 12 13 14 15 16 17 18 19 20 21 22 23 24 25 26
000
FTUS43 KICT 250520
TAFICT
TAF
KICT 250520Z 2506/2606 15006KT 6SM BR SCT006 SCT015
      TEMPO 2506/2510 3SM BR BKN006 OVC015
     FM251000 16006KT 3SM BR OVC006
     FM251500 18012KT P6SM SCT006 BKN025
     FM251800 18017G24KT P6SM SCT040=

USA.gov is the U.S. government's official web portal to all federal, state and local government web resources and services.